createdAt,value
2022-08-07T00:04:47.547Z,100973.81
2022-08-07T00:14:50.447Z,100975.28
2022-08-07T00:24:51.913Z,100972.06
2022-08-07T00:34:54.240Z,100962.56
2022-08-07T00:44:55.529Z,100970.91
2022-08-07T00:54:56.883Z,100971.25
2022-08-07T01:04:59.191Z,100964.47
2022-08-07T01:15:03.923Z,100974.53
2022-08-07T01:25:40.603Z,100972.28
2022-08-07T01:35:53.727Z,100983.44
2022-08-07T01:45:48.492Z,100977.47
2022-08-07T01:55:55.938Z,100977.84
2022-08-07T02:06:00.021Z,100973.22
2022-08-07T02:16:02.388Z,100959.22
2022-08-07T02:26:30.759Z,100948.91
2022-08-07T02:36:33.110Z,100938.63
2022-08-07T02:46:36.710Z,100932.69
2022-08-07T02:56:38.285Z,100932.03
2022-08-07T03:06:41.413Z,100917.28
2022-08-07T03:16:43.376Z,100918.38
2022-08-07T03:26:58.333Z,100918.31
2022-08-07T03:37:00.791Z,100931.78
2022-08-07T03:47:14.718Z,100943.19
2022-08-07T03:58:35.204Z,100952.34
2022-08-07T04:07:42.755Z,100959.53
2022-08-07T04:18:30.797Z,100945.03
2022-08-07T04:28:08.248Z,100958.22
2022-08-07T04:38:13.055Z,100966.81
2022-08-07T04:48:14.967Z,100972.59
2022-08-07T04:58:33.598Z,100976.63
2022-08-07T05:09:00.025Z,100988.66
2022-08-07T05:19:00.759Z,100991.91
2022-08-07T05:29:04.129Z,100990.50
2022-08-07T05:40:06.792Z,100984.28
2022-08-07T05:49:27.064Z,100992.22
2022-08-07T05:59:57.269Z,100994.81
2022-08-07T06:10:05.325Z,101007.97
2022-08-07T06:20:12.723Z,101013.38
2022-08-07T06:30:35.699Z,101016.41
2022-08-07T06:40:39.759Z,101009.97
2022-08-07T06:50:47.626Z,101015.06
2022-08-07T07:00:53.087Z,100998.03
2022-08-07T07:10:56.861Z,100995.16
2022-08-07T07:20:59.073Z,100993.78
2022-08-07T07:31:00.419Z,100990.94
2022-08-07T07:41:02.562Z,100987.47
2022-08-07T07:51:07.690Z,100988.41
2022-08-07T08:02:02.904Z,100985.28
2022-08-07T08:11:59.365Z,100968.47
2022-08-07T08:22:11.315Z,100963.91
2022-08-07T08:32:18.725Z,100956.56
2022-08-07T08:42:26.621Z,100945.56
2022-08-07T08:52:30.344Z,100944.72
2022-08-07T09:02:35.110Z,100939.72
2022-08-07T09:12:38.681Z,100928.81
2022-08-07T09:24:30.925Z,100919.66
2022-08-07T09:33:05.506Z,100917.66
2022-08-07T09:43:18.138Z,100899.47
2022-08-07T09:53:20.229Z,100891.91
2022-08-07T10:04:05.251Z,100866.91
2022-08-07T10:14:01.399Z,100858.91
2022-08-07T10:24:04.971Z,100839.34
2022-08-07T10:34:18.158Z,100824.25
2022-08-07T10:44:33.723Z,100812.88
2022-08-07T10:54:39.532Z,100800.03
2022-08-07T11:04:40.967Z,100798.38
2022-08-07T11:14:59.648Z,100789.88
2022-08-07T11:25:06.471Z,100768.56
2022-08-07T11:35:09.263Z,100766.47
2022-08-07T11:45:12.210Z,100750.69
2022-08-07T11:56:09.196Z,100746.81
2022-08-07T12:05:47.367Z,100742.59
2022-08-07T12:16:06.553Z,100736.88
2022-08-07T12:26:30.077Z,100731.00
2022-08-07T12:36:33.526Z,100715.34
2022-08-07T12:46:35.177Z,100707.34
2022-08-07T12:56:39.565Z,100699.06
2022-08-07T13:07:00.500Z,100691.19
2022-08-07T13:17:02.535Z,100689.00
2022-08-07T13:27:05.747Z,100675.53
2022-08-07T13:37:10.920Z,100650.50
2022-08-07T13:47:25.220Z,100663.94
2022-08-07T13:57:26.874Z,100636.13
2022-08-07T14:07:59.270Z,100621.72
2022-08-07T14:18:27.489Z,100618.47
2022-08-07T14:28:32.204Z,100614.50
2022-08-07T14:38:50.458Z,100610.69
2022-08-07T14:48:52.028Z,100592.97
2022-08-07T15:30:04.795Z,100580.31
2022-08-07T15:40:34.563Z,100576.25
2022-08-07T15:50:37.620Z,100559.03
2022-08-07T16:00:57.819Z,100556.56
2022-08-07T16:10:59.148Z,100543.56
2022-08-07T16:21:57.096Z,100543.75
2022-08-07T16:31:51.564Z,100537.34
2022-08-07T16:41:53.948Z,100540.31
2022-08-07T16:52:35.335Z,100534.91
2022-08-07T17:02:51.136Z,100538.81
2022-08-07T17:12:44.685Z,100541.41
2022-08-07T17:22:46.956Z,100553.94
2022-08-07T17:32:52.482Z,100543.75
2022-08-07T17:42:58.270Z,100555.47
2022-08-07T17:53:01.731Z,100556.25
2022-08-07T18:03:09.345Z,100567.97
2022-08-07T18:13:11.021Z,100570.50
2022-08-07T18:23:42.727Z,100573.47
2022-08-07T18:33:38.896Z,100586.13
2022-08-07T18:43:57.486Z,100601.31
2022-08-07T18:53:59.374Z,100622.84
2022-08-07T19:04:03.106Z,100628.50
2022-08-07T19:14:11.547Z,100644.97
2022-08-07T19:24:30.781Z,100654.44
2022-08-07T19:34:36.116Z,100666.41
2022-08-07T19:44:41.158Z,100670.28
2022-08-07T19:54:45.134Z,100685.50
2022-08-07T20:05:00.507Z,100690.34
2022-08-07T20:15:03.601Z,100689.75
2022-08-07T20:25:12.971Z,100693.81
2022-08-07T20:35:26.399Z,100696.69
2022-08-07T20:45:33.185Z,100696.00
2022-08-07T20:55:50.175Z,100693.97
2022-08-07T21:05:56.487Z,100691.94
2022-08-07T21:16:00.751Z,100691.50
2022-08-07T21:26:03.270Z,100683.38
2022-08-07T21:36:12.072Z,100670.78
2022-08-07T21:46:31.627Z,100677.84
2022-08-07T21:56:37.710Z,100687.00
2022-08-07T22:06:44.974Z,100685.25
2022-08-07T22:16:47.787Z,100700.88
2022-08-07T22:26:49.247Z,100706.38
2022-08-07T22:36:52.691Z,100708.91
2022-08-07T22:47:04.171Z,100713.75
2022-08-07T22:57:07.905Z,100717.59
2022-08-07T23:07:39.867Z,100721.47
2022-08-07T23:17:32.933Z,100728.00
2022-08-07T23:27:34.517Z,100718.56
2022-08-07T23:37:36.154Z,100732.09
2022-08-07T23:47:46.465Z,100718.00
2022-08-07T23:57:49.411Z,100733.16
